createdAt,value
2018-07-02T00:02:03.433Z,100204.36
2018-07-02T00:06:58.946Z,100202.01
2018-07-02T00:11:42.501Z,100209.20
2018-07-02T00:16:30.536Z,100211.13
2018-07-02T00:21:14.068Z,100221.81
2018-07-02T00:25:59.349Z,100214.61
2018-07-02T00:30:42.909Z,100219.93
2018-07-02T00:35:26.432Z,100222.95
2018-07-02T00:40:13.157Z,100216.61
2018-07-02T00:44:56.686Z,100214.09
2018-07-02T00:49:43.180Z,100214.52
2018-07-02T00:54:26.777Z,100208.51
2018-07-02T00:59:13.504Z,100206.45
2018-07-02T01:03:58.834Z,100194.18
2018-07-02T01:08:42.516Z,100196.31
2018-07-02T01:13:26.133Z,100206.56
2018-07-02T01:18:09.851Z,100207.48
2018-07-02T01:22:53.357Z,100210.79
2018-07-02T01:27:37.073Z,100206.20
2018-07-02T01:32:20.587Z,100197.97
2018-07-02T01:37:05.267Z,100196.80
2018-07-02T01:41:48.906Z,100213.17
2018-07-02T01:46:33.508Z,100212.77
2018-07-02T01:51:17.107Z,100211.45
2018-07-02T01:56:01.820Z,100192.85
2018-07-02T02:00:45.236Z,100213.87
2018-07-02T02:05:28.865Z,100221.74
2018-07-02T02:10:12.345Z,100223.96
2018-07-02T02:14:55.825Z,100214.27
2018-07-02T02:19:40.664Z,100219.32
2018-07-02T02:24:24.145Z,100215.62
2018-07-02T02:29:07.720Z,100217.88
2018-07-02T02:33:51.228Z,100207.03
2018-07-02T02:38:37.823Z,100219.09
2018-07-02T02:43:21.472Z,100232.80
2018-07-02T02:48:05.427Z,100243.39
2018-07-02T02:52:49.016Z,100249.84
2018-07-02T02:57:33.697Z,100255.45
2018-07-02T03:02:17.340Z,100267.78
2018-07-02T03:07:10.210Z,100255.39
2018-07-02T03:11:53.897Z,100246.28
2018-07-02T03:16:38.804Z,100259.20
2018-07-02T03:21:22.484Z,100268.94
2018-07-02T03:26:07.149Z,100274.35
2018-07-02T03:30:50.730Z,100267.28
2018-07-02T03:35:37.792Z,100279.50
2018-07-02T03:40:21.319Z,100289.36
2018-07-02T03:45:04.976Z,100295.27
2018-07-02T03:49:51.621Z,100302.97
2018-07-02T03:54:35.156Z,100315.34
2018-07-02T03:59:21.774Z,100307.12
2018-07-02T04:04:23.116Z,100297.17
2018-07-02T04:09:11.654Z,100303.66
2018-07-02T04:13:55.685Z,100312.11
2018-07-02T04:18:39.316Z,100323.12
2018-07-02T04:23:23.952Z,100322.86
2018-07-02T04:28:07.578Z,100330.48
2018-07-02T04:32:52.151Z,100337.02
2018-07-02T04:37:35.782Z,100339.97
2018-07-02T04:42:20.311Z,100339.58
2018-07-02T04:47:03.914Z,100338.56
2018-07-02T04:51:47.581Z,100338.20
2018-07-02T04:56:31.158Z,100344.02
2018-07-02T05:01:14.671Z,100350.86
2018-07-02T05:06:04.213Z,100360.34
2018-07-02T05:10:47.817Z,100350.37
2018-07-02T05:15:31.426Z,100358.25
2018-07-02T05:20:14.968Z,100351.27
2018-07-02T05:25:02.279Z,100351.56
2018-07-02T05:29:45.963Z,100359.08
2018-07-02T05:34:32.845Z,100348.42
2018-07-02T05:39:16.592Z,100354.08
2018-07-02T05:44:04.036Z,100347.30
2018-07-02T05:48:48.613Z,100343.31
2018-07-02T05:53:32.497Z,100344.73
2018-07-02T05:58:16.170Z,100350.37
2018-07-02T06:03:00.009Z,100352.05
2018-07-02T06:07:43.731Z,100347.64
2018-07-02T06:12:27.360Z,100348.20
2018-07-02T06:17:11.056Z,100342.23
2018-07-02T06:21:54.604Z,100350.68
2018-07-02T06:26:38.150Z,100347.69
2018-07-02T06:31:21.696Z,100341.84
2018-07-02T06:36:05.241Z,100336.21
2018-07-02T06:40:49.541Z,100340.11
2018-07-02T06:45:36.466Z,100340.81
2018-07-02T06:50:21.132Z,100333.98
2018-07-02T06:55:07.149Z,100334.45
2018-07-02T06:59:51.360Z,100328.64
2018-07-02T07:04:35.745Z,100332.03
2018-07-02T07:09:20.495Z,100325.24
2018-07-02T07:14:07.874Z,100337.03
2018-07-02T07:18:51.426Z,100343.05
2018-07-02T07:23:38.967Z,100331.83
2018-07-02T07:28:22.840Z,100333.89
2018-07-02T07:33:09.508Z,100344.74
2018-07-02T07:37:53.152Z,100356.06
2018-07-02T07:42:38.010Z,100353.78
2018-07-02T07:47:21.579Z,100359.75
2018-07-02T07:52:06.226Z,100361.80
2018-07-02T07:56:49.768Z,100361.89
2018-07-02T08:01:33.206Z,100365.95
2018-07-02T08:06:16.801Z,100361.52
2018-07-02T08:11:00.243Z,100360.56
2018-07-02T08:15:43.881Z,100359.97
2018-07-02T08:20:27.565Z,100366.88
2018-07-02T08:25:12.306Z,100359.13
2018-07-02T08:29:55.896Z,100355.42
2018-07-02T08:34:43.190Z,100355.02
2018-07-02T08:39:26.853Z,100355.20
2018-07-02T08:44:10.676Z,100356.26
2018-07-02T08:48:54.191Z,100360.00
2018-07-02T08:53:38.876Z,100357.10
2018-07-02T08:58:22.504Z,100352.19
2018-07-02T09:03:07.230Z,100352.52
2018-07-02T09:07:50.770Z,100344.58
2018-07-02T09:12:34.478Z,100355.44
2018-07-02T09:17:18.024Z,100349.90
2018-07-02T09:22:01.660Z,100355.74
2018-07-02T09:26:45.130Z,100345.47
2018-07-02T09:31:32.652Z,100354.92
2018-07-02T09:36:16.264Z,100344.72
2018-07-02T09:41:04.029Z,100349.88
2018-07-02T09:45:47.457Z,100352.09
2018-07-02T09:50:30.923Z,100345.23
2018-07-02T09:55:15.581Z,100340.89
2018-07-02T09:59:59.155Z,100337.91
2018-07-02T10:04:42.840Z,100336.08
2018-07-02T10:09:26.449Z,100334.94
2018-07-02T10:14:13.637Z,100329.95
2018-07-02T10:18:57.228Z,100335.53
2018-07-02T10:23:41.965Z,100320.44
2018-07-02T10:28:25.575Z,100326.45
2018-07-02T10:33:10.582Z,100325.03
2018-07-02T10:37:55.382Z,100307.33
2018-07-02T10:42:44.644Z,100318.59
2018-07-02T10:47:28.314Z,100318.91
2018-07-02T10:52:14.008Z,100317.12
2018-07-02T10:56:57.651Z,100309.30
2018-07-02T11:01:44.091Z,100315.08
2018-07-02T11:06:27.538Z,100305.36
2018-07-02T11:11:14.619Z,100304.55
2018-07-02T11:15:58.246Z,100302.78
2018-07-02T11:20:43.336Z,100309.19
2018-07-02T11:25:27.142Z,100307.33
2018-07-02T11:30:10.722Z,100308.84
2018-07-02T11:34:55.601Z,100308.06
2018-07-02T11:39:43.241Z,100316.50
2018-07-02T11:44:31.360Z,100298.92
2018-07-02T11:54:41.857Z,100312.22
2018-07-02T11:59:25.289Z,100296.81
2018-07-02T12:04:12.028Z,100308.33
2018-07-02T12:08:55.818Z,100306.27
2018-07-02T12:13:39.550Z,100301.81
2018-07-02T12:18:23.082Z,100292.24
2018-07-02T12:23:12.459Z,100284.95
2018-07-02T12:27:55.920Z,100284.70
2018-07-02T12:32:40.588Z,100280.02
2018-07-02T12:37:24.127Z,100267.39
2018-07-02T12:42:08.817Z,100275.75
2018-07-02T12:46:52.482Z,100266.31
2018-07-02T12:51:36.163Z,100262.80
2018-07-02T12:56:19.858Z,100257.56
2018-07-02T13:01:03.624Z,100252.45
2018-07-02T13:05:47.311Z,100251.36
2018-07-02T13:10:33.997Z,100255.31
2018-07-02T13:15:17.580Z,100255.26
2018-07-02T13:20:01.167Z,100259.53
2018-07-02T13:24:44.600Z,100259.51
2018-07-02T13:29:28.111Z,100245.30
2018-07-02T13:34:11.846Z,100255.51
2018-07-02T13:38:55.372Z,100242.61
2018-07-02T13:43:41.992Z,100252.40
2018-07-02T13:48:25.544Z,100248.09
2018-07-02T13:53:12.771Z,100248.61
2018-07-02T13:57:56.296Z,100254.19
2018-07-02T14:02:43.410Z,100259.78
2018-07-02T14:07:26.942Z,100254.80
2018-07-02T14:12:14.195Z,100260.42
2018-07-02T14:16:57.817Z,100255.11
2018-07-02T14:21:42.742Z,100260.36
2018-07-02T14:26:26.288Z,100251.36
2018-07-02T14:31:10.857Z,100250.42
2018-07-02T14:35:54.380Z,100252.49
2018-07-02T14:40:39.172Z,100250.08
2018-07-02T14:45:22.976Z,100248.99
2018-07-02T14:50:07.784Z,100248.58
2018-07-02T14:54:51.421Z,100239.66
2018-07-02T14:59:36.707Z,100243.98
2018-07-02T15:04:20.429Z,100235.62
2018-07-02T15:09:06.816Z,100244.41
2018-07-02T15:13:54.109Z,100241.02
2018-07-02T15:18:37.672Z,100242.50
2018-07-02T15:23:25.702Z,100240.02
2018-07-02T15:28:09.885Z,100242.98
2018-07-02T15:32:53.493Z,100248.28
2018-07-02T15:37:37.030Z,100239.36
2018-07-02T15:42:23.995Z,100237.19
2018-07-02T15:47:07.475Z,100236.05
2018-07-02T15:51:51.237Z,100241.56
2018-07-02T15:56:34.838Z,100249.34
2018-07-02T16:01:18.625Z,100251.39
2018-07-02T16:06:02.196Z,100250.82
2018-07-02T16:10:46.899Z,100253.16
2018-07-02T16:15:31.258Z,100254.59
2018-07-02T16:20:16.024Z,100256.33
2018-07-02T16:25:02.064Z,100257.87
2018-07-02T16:29:49.139Z,100257.25
2018-07-02T16:34:32.998Z,100260.72
2018-07-02T16:39:16.622Z,100257.73
2018-07-02T16:44:04.721Z,100260.28
2018-07-02T16:48:48.202Z,100248.84
2018-07-02T16:53:37.173Z,100243.39
2018-07-02T16:58:20.810Z,100253.38
2018-07-02T17:03:05.973Z,100249.72
2018-07-02T17:07:49.678Z,100255.23
2018-07-02T17:12:33.580Z,100255.53
2018-07-02T17:17:17.169Z,100258.79
2018-07-02T17:22:04.536Z,100257.66
2018-07-02T17:26:48.169Z,100256.09
2018-07-02T17:31:32.838Z,100262.89
2018-07-02T17:36:16.429Z,100258.84
2018-07-02T17:41:03.117Z,100262.56
2018-07-02T17:45:46.781Z,100259.30
2018-07-02T17:50:33.347Z,100258.89
2018-07-02T17:55:16.870Z,100261.17
2018-07-02T18:00:01.652Z,100251.48
2018-07-02T18:04:45.304Z,100253.11
2018-07-02T18:09:28.889Z,100260.98
2018-07-02T18:14:12.606Z,100265.53
2018-07-02T18:18:56.318Z,100267.41
2018-07-02T18:23:41.827Z,100277.91
2018-07-02T18:28:26.162Z,100281.66
2018-07-02T18:33:11.437Z,100283.19
2018-07-02T18:37:54.940Z,100299.48
2018-07-02T18:42:44.482Z,100302.85
2018-07-02T18:47:28.159Z,100307.87
2018-07-02T18:52:14.866Z,100308.80
2018-07-02T18:56:58.546Z,100309.48
2018-07-02T19:03:16.146Z,100311.78
2018-07-02T19:08:02.858Z,100318.15
2018-07-02T19:12:50.280Z,100312.25
2018-07-02T19:17:34.809Z,100309.06
2018-07-02T19:22:19.669Z,100312.22
2018-07-02T19:27:03.327Z,100306.72
2018-07-02T19:31:48.287Z,100303.41
2018-07-02T19:36:31.995Z,100298.73
2018-07-02T19:41:19.156Z,100301.44
2018-07-02T19:46:02.789Z,100290.16
2018-07-02T19:50:49.773Z,100296.02
2018-07-02T19:55:33.447Z,100304.23
2018-07-02T20:00:20.060Z,100306.14
2018-07-02T20:05:03.522Z,100303.59
2018-07-02T20:09:50.409Z,100298.22
2018-07-02T20:14:34.036Z,100295.23
2018-07-02T20:19:17.732Z,100295.70
2018-07-02T20:24:01.302Z,100287.44
2018-07-02T20:28:44.812Z,100287.81
2018-07-02T20:33:28.294Z,100284.58
2018-07-02T20:38:11.900Z,100281.03
2018-07-02T20:42:55.638Z,100285.05
2018-07-02T20:47:39.232Z,100296.83
2018-07-02T20:52:26.576Z,100272.69
2018-07-02T20:57:10.803Z,100271.40
2018-07-02T21:01:54.450Z,100269.47
2018-07-02T21:06:39.218Z,100272.95
2018-07-02T21:11:25.998Z,100264.51
2018-07-02T21:16:10.257Z,100272.48
2018-07-02T21:20:53.895Z,100265.27
2018-07-02T21:25:37.507Z,100264.92
2018-07-02T21:30:24.529Z,100267.02
2018-07-02T21:35:09.678Z,100270.42
2018-07-02T21:39:57.015Z,100270.14
2018-07-02T21:44:40.472Z,100252.61
2018-07-02T21:49:24.126Z,100253.17
2018-07-02T21:54:07.795Z,100266.61
2018-07-02T21:58:51.544Z,100265.81
2018-07-02T22:03:35.243Z,100264.64
2018-07-02T22:08:18.865Z,100261.23
2018-07-02T22:13:03.245Z,100271.56
2018-07-02T22:17:46.836Z,100261.70
2018-07-02T22:22:31.598Z,100259.48
2018-07-02T22:27:15.220Z,100264.87
2018-07-02T22:31:58.922Z,100267.37
2018-07-02T22:36:42.541Z,100266.78
2018-07-02T22:41:27.196Z,100264.08
2018-07-02T22:46:10.800Z,100259.81
2018-07-02T22:50:57.850Z,100250.45
2018-07-02T22:55:52.121Z,100245.36
2018-07-02T23:00:36.711Z,100251.91
2018-07-02T23:05:20.249Z,100236.13
2018-07-02T23:10:06.882Z,100241.20
2018-07-02T23:14:50.291Z,100246.18
2018-07-02T23:19:35.263Z,100234.04
2018-07-02T23:24:18.769Z,100221.01
2018-07-02T23:29:02.448Z,100223.21
2018-07-02T23:33:46.129Z,100219.09
2018-07-02T23:38:29.713Z,100219.80
2018-07-02T23:43:13.367Z,100211.83
2018-07-02T23:47:56.947Z,100219.83
2018-07-02T23:52:41.677Z,100214.48
2018-07-02T23:57:25.244Z,100207.41
